Meteo Giornale » Osservazioni meteo Svizzera » Samedan

ore: 00:50 - Osservazioni Meteo Samedan
Lat. 46° 32' N Lon. 9° 53' E Alt. 1706 metri s.l.m.

poco_nuvoloso Europe/Zurich

-9 °C

Poco Nuvoloso

Temp. 24 Ore

-14 °C

6 °C

Nord

3.7 Km/h

Dew point -11 °C

Umidità 85 %

Visibilità  10 Km

Il sole sorge alle ore 07:10

Il sole tramonta alle ore 17:57

Data e Ora Cielo e Fenomeni T °C DP °C Um. % Pres. hPa Vis. km Vento km/h
Oggi h: 00:50 poco_nuvoloso Poco Nuvoloso -9 -11 85 1029 10 N 3.7
Oggi h: 00:20 sereno Sereno -7 -10 79 1029 10 N 3.7
Ieri h: 23:50 sereno Sereno -7 -10 79 1029 10 N 3.7
Ieri h: 23:20 sereno Sereno -5 -8 79 1029 10 N 5.5
Ieri h: 22:50 sereno Sereno -7 -11 73 1029 10 N 3.7
Ieri h: 22:20 sereno Sereno -4 -9 68 1029 10 N 5.5
Ieri h: 21:50 sereno Sereno -4 -8 73 1029 10 N 5.5
Ieri h: 21:20 sereno Sereno -4 -8 73 1029 10 N 5.5
Ieri h: 20:50 sereno Sereno -5 -8 79 1029 10 N 5.5
Ieri h: 20:20 sereno Sereno -6 -9 79 1028 10 N 3.7
Ieri h: 19:50 sereno Sereno -3 -8 68 1028 10 N 5.5
Ieri h: 19:20 sereno Sereno -3 -9 63 1028 10 S/SO 9.3
Ieri h: 18:50 sereno Sereno -2 -8 63 1028 10 N 5.5
Ieri h: 18:20 sereno Sereno 1 -7 55 1027 10 N/NE 11.1
Ieri h: 17:50 sereno Sereno 1 -8 50 1027 10 NE 7.4
Ieri h: 17:20 sereno Sereno 5 -8 38 1027 10 N 5.5
Ieri h: 16:50 sereno Sereno 5 -7 41 1027 10 N 13
Ieri h: 16:20 sereno Sereno 6 -8 35 1026 10 N/NE 11.1
Ieri h: 15:50 sereno Sereno 6 -9 33 1026 10 N 11.1
Ieri h: 15:20 sereno Sereno 6 -9 33 1026 10 N/NO 11.1
Ieri h: 14:50 sereno Sereno 6 -8 35 1026 10 N/NE 9.3
Ieri h: 14:20 sereno Sereno 6 -7 38 1026 10 NE 9.3
Ieri h: 13:50 sereno Sereno 6 -9 33 1027 10 N 5.5
Ieri h: 13:20 sereno Sereno 4 -11 32 1027 10 N 1.8
Ieri h: 12:50 sereno Sereno 3 -12 32 1027 10 N 1.8
Ieri h: 12:20 sereno Sereno -1 -9 54 1027 10 N 1.8
Ieri h: 11:50 sereno Sereno -0 -12 39 1028 10 N 1.8
Ieri h: 11:20 sereno Sereno -3 -9 63 1028 10 N 0
Ieri h: 10:50 sereno Sereno -7 -11 73 1028 10 N 1.8
Ieri h: 10:20 sereno Sereno -6 -9 79 1028 10 N 1.8
Ieri h: 09:50 sereno Sereno -10 -11 92 1028 10 N 3.7
Ieri h: 09:20 sereno Sereno -11 -12 92 1028 10 N 1.8
Ieri h: 08:50 poco_nuvoloso Poco Nuvoloso -11 -12 92 1028 10 N 3.7
Ieri h: 08:20 poco_nuvoloso Poco Nuvoloso -14 -16 84 1028 10 N 1.8
Ieri h: 07:50 poco_nuvoloso Poco Nuvoloso -14 -16 84 1028 10 N 3.7
Ieri h: 07:20 sereno Sereno -13 -15 84 1027 10 N 3.7
Ieri h: 06:50 sereno Sereno -14 -15 92 1027 10 N 5.5
Ieri h: 06:20 sereno Sereno -13 -15 84 1027 10 N 0
Ieri h: 05:50 sereno Sereno -12 -13 92 1027 10 N 3.7
Ieri h: 05:20 sereno Sereno -11 -12 92 1027 10 N 3.7
Ieri h: 04:50 sereno Sereno -14 -16 84 1027 10 N 1.8
Ieri h: 04:20 sereno Sereno -11 -12 92 1027 10 N 1.8
Ieri h: 03:50 sereno Sereno -12 -13 92 1027 10 N 3.7
Ieri h: 03:20 sereno Sereno -12 -13 92 1027 10 N 3.7
Ieri h: 02:50 sereno Sereno -12 -14 84 1027 10 N 3.7
Ieri h: 02:20 sereno Sereno -10 -11 92 1027 10 N 3.7
Ieri h: 01:50 sereno Sereno -10 -12 85 1026 10 N 1.8
Ieri h: 01:20 sereno Sereno -9 -10 92 1026 10 N 5.5
Ieri h: 00:50 sereno Sereno -10 -12 85 1026 10 N 5.5